Time;durP1;ratioP1;P1;durP2;ratioP2;P2;SDS_P1;SDS_P2;PMS_P1;PMS_P2;Temp;Humidity;BMP_temperature;BMP_pressure;BME280_temperature;BME280_humidity;BME280_pressure;Samples;Min_cycle;Max_cycle;Signal;HPM_P1;HPM_P2
2023/03/13 00:01:50;;;;;;;15.67;8.63;;;;;;;;;;4382562;32;317299;-82
2023/03/13 00:04:16;;;;;;;12.63;8.13;;;;;;;;;;4372997;32;316643;-83
2023/03/13 00:06:45;;;;;;;12.73;7.87;;;;;;;;;;4386446;32;316595;-82
2023/03/13 00:09:14;;;;;;;13.33;7.37;;;;;;;;;;4379544;32;317185;-82
2023/03/13 00:11:41;;;;;;;9.17;4.90;;;;;;;;;;4390010;32;316933;-82
2023/03/13 00:14:08;;;;;;;8.17;5.10;;;;;;;;;;4379579;32;315480;-83
2023/03/13 00:16:36;;;;;;;6.17;4.53;;;;;;;;;;4387327;32;315577;-82
2023/03/13 00:19:04;;;;;;;6.93;4.57;;;;;;;;;;4378964;32;316059;-84
2023/03/13 00:21:31;;;;;;;6.67;3.80;;;;;;;;;;4391504;32;316351;-81
2023/03/13 00:24:00;;;;;;;5.07;3.60;;;;;;;;;;4391006;32;315438;-82
2023/03/13 00:26:28;;;;;;;7.90;4.30;;;;;;;;;;4378679;32;316283;-82
2023/03/13 00:28:54;;;;;;;10.60;5.67;;;;;;;;;;4394157;32;316468;-82
2023/03/13 00:31:23;;;;;;;7.80;5.00;;;;;;;;;;4389403;32;317255;-82
2023/03/13 00:33:51;;;;;;;12.17;5.47;;;;;;;;;;4399637;32;315643;-82
2023/03/13 00:36:20;;;;;;;12.77;7.63;;;;;;;;;;4391008;32;317513;-82
2023/03/13 00:38:47;;;;;;;13.40;8.67;;;;;;;;;;4400257;32;317320;-82
2023/03/13 00:41:18;;;;;;;27.10;12.43;;;;;;;;;;4390624;32;316656;-82
2023/03/13 00:43:49;;;;;;;32.20;14.20;;;;;;;;;;4400651;32;318146;-81
2023/03/13 00:46:18;;;;;;;30.67;16.80;;;;;;;;;;4390393;32;318378;-82
2023/03/13 00:48:45;;;;;;;34.53;18.17;;;;;;;;;;4396399;32;317563;-82
2023/03/13 00:51:13;;;;;;;26.70;13.60;;;;;;;;;;4397915;32;318546;-82
2023/03/13 00:53:40;;;;;;;23.80;12.67;;;;;;;;;;4400130;32;318164;-83
2023/03/13 00:56:08;;;;;;;17.43;10.40;;;;;;;;;;4390370;32;318228;-82
2023/03/13 00:58:38;;;;;;;16.27;9.20;;;;;;;;;;4399335;32;317751;-82
2023/03/13 01:01:11;;;;;;;18.37;8.87;;;;;;;;;;4389064;32;316720;-83
2023/03/13 01:03:39;;;;;;;18.00;9.97;;;;;;;;;;4399400;32;317165;-82
2023/03/13 01:06:08;;;;;;;19.37;10.53;;;;;;;;;;4380693;32;333120;-81
2023/03/13 01:08:35;;;;;;;24.43;12.27;;;;;;;;;;4384675;32;317538;-82
2023/03/13 01:11:03;;;;;;;26.77;12.03;;;;;;;;;;4391083;32;317931;-81
2023/03/13 01:13:31;;;;;;;22.80;11.67;;;;;;;;;;4377063;32;417550;-82
2023/03/13 01:16:02;;;;;;;21.60;11.80;;;;;;;;;;4389930;32;317773;-81
2023/03/13 01:18:29;;;;;;;14.87;10.27;;;;;;;;;;4378384;32;417754;-81
2023/03/13 01:20:55;;;;;;;18.90;11.73;;;;;;;;;;4389057;32;317583;-83
2023/03/13 01:23:22;;;;;;;22.57;10.17;;;;;;;;;;4380648;32;317839;-81
2023/03/13 01:25:49;;;;;;;20.80;11.17;;;;;;;;;;4398358;32;317897;-86
2023/03/13 01:28:16;;;;;;;17.70;12.07;;;;;;;;;;4388886;32;317848;-81
2023/03/13 01:30:44;;;;;;;20.40;11.90;;;;;;;;;;4399531;32;318627;-82
2023/03/13 01:33:12;;;;;;;23.67;12.70;;;;;;;;;;4388560;32;317708;-84
2023/03/13 01:35:38;;;;;;;20.60;12.27;;;;;;;;;;4399835;32;318500;-82
2023/03/13 01:38:06;;;;;;;21.63;11.77;;;;;;;;;;4388342;32;318542;-85
2023/03/13 01:40:39;;;;;;;26.93;12.67;;;;;;;;;;4399187;32;317533;-82
2023/03/13 01:43:20;;;;;;;23.87;12.43;;;;;;;;;;4387751;32;318335;-83
2023/03/13 01:46:02;;;;;;;18.83;11.90;;;;;;;;;;4398523;32;318295;-83
2023/03/13 01:48:36;;;;;;;17.43;10.13;;;;;;;;;;4386791;32;418902;-84
2023/03/13 01:51:06;;;;;;;20.70;11.03;;;;;;;;;;4389529;32;318150;-83
2023/03/13 01:53:35;;;;;;;22.20;11.10;;;;;;;;;;4397256;32;346055;-81
2023/03/13 01:56:06;;;;;;;16.23;10.20;;;;;;;;;;4399303;32;318274;-80
2023/03/13 01:58:33;;;;;;;12.60;8.03;;;;;;;;;;4369339;32;417398;-81
2023/03/13 02:01:01;;;;;;;15.13;8.80;;;;;;;;;;4383900;32;316702;-82
2023/03/13 02:03:28;;;;;;;21.30;12.73;;;;;;;;;;4386263;32;417834;-82
2023/03/13 02:05:59;;;;;;;30.90;13.13;;;;;;;;;;4392425;32;318503;-82
2023/03/13 02:08:31;;;;;;;29.83;13.47;;;;;;;;;;4381532;32;318300;-82
2023/03/13 02:11:04;;;;;;;28.07;13.73;;;;;;;;;;4386943;32;318309;-81
2023/03/13 02:13:31;;;;;;;29.67;16.30;;;;;;;;;;4370808;32;389242;-82
2023/03/13 02:15:58;;;;;;;39.83;20.17;;;;;;;;;;4383738;32;318304;-82
2023/03/13 02:18:25;;;;;;;34.43;17.67;;;;;;;;;;4373051;32;318106;-81
2023/03/13 02:21:00;;;;;;;24.53;12.13;;;;;;;;;;4382569;32;317589;-83
2023/03/13 02:23:32;;;;;;;23.70;13.37;;;;;;;;;;4373389;32;318085;-82
2023/03/13 02:26:01;;;;;;;26.40;13.13;;;;;;;;;;4382969;32;318224;-82
2023/03/13 02:28:33;;;;;;;18.67;9.97;;;;;;;;;;4371099;32;420123;-82
2023/03/13 02:31:00;;;;;;;23.53;11.40;;;;;;;;;;4384047;32;317234;-81
2023/03/13 02:33:30;;;;;;;31.20;15.73;;;;;;;;;;4374157;32;318225;-81
2023/03/13 02:35:59;;;;;;;34.07;16.43;;;;;;;;;;4384220;32;317929;-82
2023/03/13 02:38:29;;;;;;;26.90;14.30;;;;;;;;;;4368891;32;317676;-82
2023/03/13 02:40:57;;;;;;;29.47;15.00;;;;;;;;;;4392570;32;318144;-82
2023/03/13 02:43:30;;;;;;;24.80;11.53;;;;;;;;;;4374114;32;317577;-82
2023/03/13 02:46:06;;;;;;;19.10;9.53;;;;;;;;;;4382844;32;317932;-82
2023/03/13 02:48:36;;;;;;;14.43;7.47;;;;;;;;;;4371508;32;416535;-81
2023/03/13 02:51:13;;;;;;;21.77;12.43;;;;;;;;;;4374815;32;317431;-81
2023/03/13 02:53:41;;;;;;;18.93;10.37;;;;;;;;;;4384548;32;318205;-81
2023/03/13 02:56:09;;;;;;;16.57;8.47;;;;;;;;;;4370737;32;317915;-82
2023/03/13 02:58:40;;;;;;;13.50;7.77;;;;;;;;;;4383995;32;316502;-82
2023/03/13 03:01:07;;;;;;;14.20;7.13;;;;;;;;;;4376445;32;317379;-81
2023/03/13 03:03:35;;;;;;;15.37;6.27;;;;;;;;;;4387662;32;316568;-81
2023/03/13 03:06:02;;;;;;;8.00;5.67;;;;;;;;;;4386585;32;316358;-81
2023/03/13 03:08:29;;;;;;;15.03;8.37;;;;;;;;;;4375722;32;415564;-81
2023/03/13 03:10:58;;;;;;;14.30;7.87;;;;;;;;;;4387688;32;316798;-81
2023/03/13 03:13:25;;;;;;;16.63;7.83;;;;;;;;;;4379704;32;317660;-81
2023/03/13 03:15:54;;;;;;;12.87;7.10;;;;;;;;;;4388163;32;316502;-81
2023/03/13 03:18:21;;;;;;;21.03;8.63;;;;;;;;;;4375981;32;317074;-82
2023/03/13 03:20:48;;;;;;;15.87;9.33;;;;;;;;;;4387010;32;317161;-81
2023/03/13 03:23:15;;;;;;;18.00;10.63;;;;;;;;;;4377202;32;317380;-81
2023/03/13 03:25:42;;;;;;;14.87;8.60;;;;;;;;;;4385428;32;318002;-82
2023/03/13 03:28:09;;;;;;;15.83;9.67;;;;;;;;;;4373738;32;317110;-82
2023/03/13 03:30:36;;;;;;;12.73;8.63;;;;;;;;;;4383225;32;317226;-82
2023/03/13 03:33:04;;;;;;;16.23;7.63;;;;;;;;;;4376016;32;316497;-83
2023/03/13 03:35:32;;;;;;;13.77;7.83;;;;;;;;;;4381989;32;316473;-82
2023/03/13 03:37:59;;;;;;;12.40;7.80;;;;;;;;;;4381657;32;316612;-82
2023/03/13 03:40:26;;;;;;;16.07;8.00;;;;;;;;;;4370195;32;316828;-82
2023/03/13 03:42:53;;;;;;;19.80;8.70;;;;;;;;;;4381740;32;316807;-82
2023/03/13 03:45:20;;;;;;;18.43;9.33;;;;;;;;;;4371332;32;331676;-83
2023/03/13 03:47:47;;;;;;;20.30;10.83;;;;;;;;;;4382855;32;316795;-82
2023/03/13 03:50:15;;;;;;;45.10;21.80;;;;;;;;;;4372746;32;318441;-82
2023/03/13 03:52:42;;;;;;;38.73;19.03;;;;;;;;;;4381023;32;318890;-82
2023/03/13 03:55:09;;;;;;;40.60;21.20;;;;;;;;;;4373059;32;317844;-82
2023/03/13 03:57:37;;;;;;;40.93;25.70;;;;;;;;;;4380152;32;318109;-81
2023/03/13 04:00:06;;;;;;;46.37;28.40;;;;;;;;;;4372298;32;318531;-83
2023/03/13 04:02:33;;;;;;;30.83;18.90;;;;;;;;;;4382953;32;318498;-82
2023/03/13 04:05:00;;;;;;;27.30;15.20;;;;;;;;;;4382054;32;318052;-82
2023/03/13 04:07:28;;;;;;;29.27;16.27;;;;;;;;;;4381343;32;317772;-82
2023/03/13 04:09:55;;;;;;;34.47;20.00;;;;;;;;;;4391401;32;318707;-82
2023/03/13 04:12:21;;;;;;;39.97;22.93;;;;;;;;;;4377589;32;318531;-82
2023/03/13 04:14:48;;;;;;;40.57;22.90;;;;;;;;;;4381124;32;317665;-81
2023/03/13 04:17:15;;;;;;;37.83;19.90;;;;;;;;;;4371337;32;331289;-82
2023/03/13 04:19:42;;;;;;;44.37;21.13;;;;;;;;;;4382329;32;330448;-82
2023/03/13 04:22:09;;;;;;;37.47;18.37;;;;;;;;;;4372847;32;318121;-81
2023/03/13 04:24:37;;;;;;;31.10;17.83;;;;;;;;;;4382609;32;317679;-82
2023/03/13 04:27:05;;;;;;;36.67;21.53;;;;;;;;;;4369756;32;342079;-82
2023/03/13 04:29:32;;;;;;;28.03;16.40;;;;;;;;;;4382816;32;317460;-82
2023/03/13 04:31:59;;;;;;;27.83;16.83;;;;;;;;;;4382900;32;318170;-82
2023/03/13 04:34:26;;;;;;;52.23;22.63;;;;;;;;;;4372836;32;318395;-82
2023/03/13 04:36:53;;;;;;;103.70;45.30;;;;;;;;;;4381264;32;318503;-81
2023/03/13 04:39:23;;;;;;;182.97;76.57;;;;;;;;;;4372636;32;319510;-83
2023/03/13 04:41:54;;;;;;;178.57;75.83;;;;;;;;;;4381223;32;318674;-83
2023/03/13 04:44:21;;;;;;;128.00;60.07;;;;;;;;;;4372702;32;319604;-81
2023/03/13 04:46:49;;;;;;;127.70;58.73;;;;;;;;;;4382313;32;319504;-81
2023/03/13 04:49:16;;;;;;;116.40;58.20;;;;;;;;;;4368985;32;319525;-81
2023/03/13 04:51:45;;;;;;;93.93;49.77;;;;;;;;;;4381293;32;318483;-81
2023/03/13 04:54:12;;;;;;;109.63;59.63;;;;;;;;;;4371727;32;318570;-82
2023/03/13 04:56:39;;;;;;;70.97;42.57;;;;;;;;;;4382463;32;318580;-82
2023/03/13 04:59:07;;;;;;;56.20;33.23;;;;;;;;;;4372492;32;318339;-82
2023/03/13 05:01:34;;;;;;;55.83;28.57;;;;;;;;;;4382185;32;317513;-82
2023/03/13 05:04:01;;;;;;;30.90;20.20;;;;;;;;;;4382647;32;318164;-82
2023/03/13 05:06:27;;;;;;;39.67;21.97;;;;;;;;;;4377648;32;417194;-82
2023/03/13 05:08:56;;;;;;;44.93;24.60;;;;;;;;;;4395062;32;318035;-82
2023/03/13 05:11:22;;;;;;;50.50;24.93;;;;;;;;;;4370694;32;318289;-82
2023/03/13 05:13:49;;;;;;;36.87;19.40;;;;;;;;;;4379133;32;336263;-82
2023/03/13 05:16:17;;;;;;;40.37;23.03;;;;;;;;;;4379745;32;318429;-83
2023/03/13 05:18:44;;;;;;;70.73;34.23;;;;;;;;;;4385051;32;318242;-82
2023/03/13 05:21:11;;;;;;;50.10;28.67;;;;;;;;;;4374894;32;318428;-82
2023/03/13 05:23:38;;;;;;;52.40;25.87;;;;;;;;;;4385093;32;318593;-82
2023/03/13 05:26:05;;;;;;;47.30;25.03;;;;;;;;;;4373620;32;318150;-81
2023/03/13 05:28:32;;;;;;;45.17;24.47;;;;;;;;;;4384940;32;318127;-83
2023/03/13 05:30:59;;;;;;;52.00;25.67;;;;;;;;;;4383249;32;318360;-82
2023/03/13 05:33:28;;;;;;;41.63;24.63;;;;;;;;;;4372667;32;358560;-82
2023/03/13 05:35:55;;;;;;;60.07;29.63;;;;;;;;;;4383217;32;318045;-82
2023/03/13 05:38:21;;;;;;;53.73;32.53;;;;;;;;;;4374060;32;318373;-83
2023/03/13 05:40:48;;;;;;;46.93;24.20;;;;;;;;;;4384454;32;318438;-82
2023/03/13 05:43:15;;;;;;;41.63;23.30;;;;;;;;;;4374467;32;319028;-82
2023/03/13 05:45:41;;;;;;;48.73;26.57;;;;;;;;;;4382932;32;318071;-83
2023/03/13 05:48:09;;;;;;;56.53;27.43;;;;;;;;;;4372336;32;318325;-90
2023/03/13 05:50:38;;;;;;;53.47;26.17;;;;;;;;;;4387559;32;317711;-86
2023/03/13 05:53:04;;;;;;;42.03;22.00;;;;;;;;;;4373419;32;318475;-88
2023/03/13 05:55:31;;;;;;;35.50;19.57;;;;;;;;;;4383633;32;323368;-83
2023/03/13 05:57:58;;;;;;;38.27;18.70;;;;;;;;;;4383903;32;318418;-85
2023/03/13 06:00:25;;;;;;;28.07;15.23;;;;;;;;;;4372593;32;318138;-89
2023/03/13 06:02:51;;;;;;;30.60;17.37;;;;;;;;;;4383005;32;317613;-87
2023/03/13 06:05:18;;;;;;;28.30;17.83;;;;;;;;;;4373680;32;318788;-90
2023/03/13 06:07:46;;;;;;;22.97;13.40;;;;;;;;;;4398138;32;318403;-90
2023/03/13 06:10:13;;;;;;;17.83;10.83;;;;;;;;;;4379456;32;324966;-87
2023/03/13 06:12:40;;;;;;;14.83;8.93;;;;;;;;;;4392224;32;318506;-87
2023/03/13 06:15:08;;;;;;;16.83;12.10;;;;;;;;;;4384448;32;317187;-87
2023/03/13 06:17:36;;;;;;;24.33;13.83;;;;;;;;;;4389306;32;318338;-89
2023/03/13 06:20:04;;;;;;;32.40;13.67;;;;;;;;;;4387943;32;318425;-82
2023/03/13 06:22:31;;;;;;;20.90;10.77;;;;;;;;;;4391570;32;318797;-90
2023/03/13 06:24:59;;;;;;;24.20;9.03;;;;;;;;;;4391729;32;318465;-82
2023/03/13 06:27:26;;;;;;;10.03;6.20;;;;;;;;;;4379149;32;317221;-82
2023/03/13 06:29:53;;;;;;;13.77;8.80;;;;;;;;;;4389014;32;317332;-81
2023/03/13 06:32:20;;;;;;;22.80;10.10;;;;;;;;;;4382171;32;317305;-82
2023/03/13 06:34:49;;;;;;;19.87;10.87;;;;;;;;;;4390451;32;318392;-82
2023/03/13 06:37:16;;;;;;;16.63;10.50;;;;;;;;;;4379459;32;318479;-89
2023/03/13 06:39:42;;;;;;;20.50;11.03;;;;;;;;;;4386893;32;318347;-88
2023/03/13 06:42:11;;;;;;;23.27;13.27;;;;;;;;;;4377582;32;354949;-89
2023/03/13 06:44:37;;;;;;;18.63;11.70;;;;;;;;;;4388550;32;318244;-84
2023/03/13 06:47:04;;;;;;;22.43;15.50;;;;;;;;;;4382245;32;318340;-81
2023/03/13 06:49:31;;;;;;;26.37;15.33;;;;;;;;;;4389363;32;318061;-83
2023/03/13 06:51:58;;;;;;;27.60;16.40;;;;;;;;;;4388491;32;318393;-82
2023/03/13 06:54:25;;;;;;;31.17;17.93;;;;;;;;;;4381991;32;318265;-86
2023/03/13 06:56:52;;;;;;;34.27;19.77;;;;;;;;;;4392799;32;318409;-81
2023/03/13 06:59:20;;;;;;;32.40;19.40;;;;;;;;;;4379307;32;318166;-81
2023/03/13 07:01:47;;;;;;;26.70;16.60;;;;;;;;;;4387564;32;317645;-84
2023/03/13 07:04:15;;;;;;;32.27;17.47;;;;;;;;;;4373260;32;318637;-88
2023/03/13 07:06:44;;;;;;;30.83;17.90;;;;;;;;;;4375516;32;317364;-83
2023/03/13 07:09:10;;;;;;;38.13;17.93;;;;;;;;;;4379487;32;317552;-87
2023/03/13 07:11:37;;;;;;;30.07;17.60;;;;;;;;;;4391570;32;317854;-80
2023/03/13 07:14:04;;;;;;;28.73;18.07;;;;;;;;;;4381084;32;318342;-89
2023/03/13 07:16:33;;;;;;;32.10;19.07;;;;;;;;;;4388709;32;318200;-92
2023/03/13 07:18:59;;;;;;;42.63;20.00;;;;;;;;;;4386446;32;318307;-84
2023/03/13 07:21:26;;;;;;;33.43;18.13;;;;;;;;;;4372552;32;318532;-81
2023/03/13 07:23:53;;;;;;;27.73;18.20;;;;;;;;;;4381767;32;318788;-92
2023/03/13 07:26:20;;;;;;;25.50;17.00;;;;;;;;;;4371559;32;318133;-90
2023/03/13 07:28:46;;;;;;;27.33;16.30;;;;;;;;;;4380736;32;317781;-86
2023/03/13 07:31:15;;;;;;;25.30;16.53;;;;;;;;;;4366278;32;317865;-91
2023/03/13 07:33:43;;;;;;;23.43;14.57;;;;;;;;;;4377950;32;317687;-91
2023/03/13 07:36:12;;;;;;;30.60;16.90;;;;;;;;;;4369246;32;332127;-91
2023/03/13 07:38:38;;;;;;;28.57;17.27;;;;;;;;;;4376264;32;318494;-82
2023/03/13 07:41:06;;;;;;;23.47;13.07;;;;;;;;;;4362976;32;341375;-83
2023/03/13 07:43:33;;;;;;;23.60;13.67;;;;;;;;;;4374783;32;318839;-87
2023/03/13 07:46:02;;;;;;;32.67;17.83;;;;;;;;;;4375096;32;348987;-84
2023/03/13 07:48:31;;;;;;;36.50;15.30;;;;;;;;;;4360553;32;417002;-85
2023/03/13 07:51:00;;;;;;;18.63;12.13;;;;;;;;;;4375026;32;318878;-84
2023/03/13 07:53:30;;;;;;;21.73;14.30;;;;;;;;;;4370909;32;323871;-84
2023/03/13 07:56:00;;;;;;;21.77;14.20;;;;;;;;;;4377487;32;317706;-84
2023/03/13 07:58:29;;;;;;;26.23;13.53;;;;;;;;;;4365753;32;317662;-83
2023/03/13 08:00:57;;;;;;;22.73;13.93;;;;;;;;;;4382000;32;318063;-85
2023/03/13 08:03:24;;;;;;;23.13;11.87;;;;;;;;;;4371628;32;318382;-83
2023/03/13 08:06:00;;;;;;;25.33;11.50;;;;;;;;;;4387550;32;317732;-82
2023/03/13 08:08:29;;;;;;;36.53;20.53;;;;;;;;;;4365470;32;317558;-82
2023/03/13 08:11:00;;;;;;;18.63;12.87;;;;;;;;;;4388535;32;320418;-84
2023/03/13 08:13:27;;;;;;;18.80;11.07;;;;;;;;;;4371759;32;318192;-83
2023/03/13 08:16:03;;;;;;;20.10;9.10;;;;;;;;;;4381060;32;317654;-83
2023/03/13 08:18:33;;;;;;;21.40;10.03;;;;;;;;;;4369510;32;416418;-84
2023/03/13 08:21:11;;;;;;;16.50;10.40;;;;;;;;;;4382405;32;317356;-84
2023/03/13 08:23:39;;;;;;;19.83;9.97;;;;;;;;;;4368993;32;418526;-85
2023/03/13 08:26:07;;;;;;;20.90;10.00;;;;;;;;;;4369895;32;323860;-87
2023/03/13 08:28:35;;;;;;;15.53;9.17;;;;;;;;;;4382382;32;317538;-86
2023/03/13 08:31:08;;;;;;;81.23;39.10;;;;;;;;;;4381105;32;317292;-85
2023/03/13 08:33:36;;;;;;;127.90;57.37;;;;;;;;;;4368211;32;417572;-85
2023/03/13 08:36:11;;;;;;;23.77;11.57;;;;;;;;;;4376961;32;319277;-85
2023/03/13 08:38:38;;;;;;;26.33;11.80;;;;;;;;;;4382920;32;318167;-86
2023/03/13 08:41:05;;;;;;;20.53;10.53;;;;;;;;;;4372407;32;317540;-85
2023/03/13 08:43:32;;;;;;;14.17;8.50;;;;;;;;;;4382999;32;317632;-85
2023/03/13 08:45:59;;;;;;;13.70;8.43;;;;;;;;;;4382818;32;317280;-83
2023/03/13 08:48:26;;;;;;;14.60;8.90;;;;;;;;;;4372217;32;316910;-83
2023/03/13 08:51:03;;;;;;;14.17;8.87;;;;;;;;;;4381452;32;340930;-82
2023/03/13 08:53:33;;;;;;;10.80;7.33;;;;;;;;;;4372696;32;416001;-83
2023/03/13 08:55:59;;;;;;;10.33;7.17;;;;;;;;;;4398774;32;316987;-84
2023/03/13 08:58:26;;;;;;;10.13;6.33;;;;;;;;;;4390856;32;317143;-84
2023/03/13 09:00:55;;;;;;;15.43;6.97;;;;;;;;;;4400791;32;316495;-85
2023/03/13 09:03:22;;;;;;;11.53;6.53;;;;;;;;;;4390137;32;317288;-83
2023/03/13 09:05:49;;;;;;;9.93;6.57;;;;;;;;;;4398685;32;316495;-84
2023/03/13 09:08:16;;;;;;;10.13;6.87;;;;;;;;;;4392219;32;316768;-86
2023/03/13 09:10:44;;;;;;;12.00;7.03;;;;;;;;;;4413583;32;318190;-84
2023/03/13 09:13:11;;;;;;;15.03;8.13;;;;;;;;;;4406189;32;318350;-83
2023/03/13 09:15:37;;;;;;;9.83;6.67;;;;;;;;;;4417699;32;318305;-85
2023/03/13 09:18:05;;;;;;;8.53;5.73;;;;;;;;;;4411333;32;316318;-83
2023/03/13 09:20:32;;;;;;;27.33;7.23;;;;;;;;;;4426382;32;316738;-81
2023/03/13 09:22:59;;;;;;;10.23;6.47;;;;;;;;;;4426430;32;316246;-87
2023/03/13 09:25:25;;;;;;;11.43;6.10;;;;;;;;;;4421429;32;317885;-85
2023/03/13 09:27:53;;;;;;;10.97;5.90;;;;;;;;;;4430824;32;317029;-84
2023/03/13 09:30:20;;;;;;;19.60;8.53;;;;;;;;;;4420720;32;316274;-86
2023/03/13 09:32:47;;;;;;;12.77;7.07;;;;;;;;;;4422249;32;317425;-85
2023/03/13 09:35:14;;;;;;;8.60;6.20;;;;;;;;;;4418299;32;317728;-85
2023/03/13 09:37:41;;;;;;;9.37;5.70;;;;;;;;;;4426161;32;316078;-83
2023/03/13 09:40:14;;;;;;;9.57;6.30;;;;;;;;;;4413928;32;367865;-84
2023/03/13 09:42:46;;;;;;;10.20;6.20;;;;;;;;;;4420097;32;316440;-84
2023/03/13 09:45:17;;;;;;;8.07;5.27;;;;;;;;;;4410085;32;340242;-88
2023/03/13 09:47:48;;;;;;;7.13;5.13;;;;;;;;;;4411452;32;316732;-86
2023/03/13 09:50:18;;;;;;;8.13;5.27;;;;;;;;;;4407535;32;317127;-85
2023/03/13 09:52:48;;;;;;;5.40;4.07;;;;;;;;;;4399300;32;316719;-80
2023/03/13 09:55:21;;;;;;;8.37;3.37;;;;;;;;;;4387957;32;316560;-87
2023/03/13 09:57:53;;;;;;;4.70;2.87;;;;;;;;;;4397349;32;317113;-82
2023/03/13 10:00:25;;;;;;;5.63;2.73;;;;;;;;;;4388291;32;317253;-86
2023/03/13 10:02:56;;;;;;;6.03;3.43;;;;;;;;;;4396932;32;317218;-81
2023/03/13 10:05:26;;;;;;;4.07;2.80;;;;;;;;;;4383706;32;316455;-82
2023/03/13 10:07:59;;;;;;;4.00;2.93;;;;;;;;;;4396724;32;316541;-90
2023/03/13 10:10:35;;;;;;;3.83;3.00;;;;;;;;;;4387079;32;316710;-83
2023/03/13 10:13:15;;;;;;;5.10;3.53;;;;;;;;;;4395698;32;316632;-84
2023/03/13 10:15:50;;;;;;;6.63;3.13;;;;;;;;;;4369369;32;415576;-88
2023/03/13 10:18:20;;;;;;;3.83;2.57;;;;;;;;;;4372026;32;316688;-83
2023/03/13 10:20:49;;;;;;;12.40;3.90;;;;;;;;;;4381779;32;316343;-83
2023/03/13 10:23:21;;;;;;;5.50;2.63;;;;;;;;;;4372697;32;318258;-83
2023/03/13 10:25:48;;;;;;;6.27;2.70;;;;;;;;;;4382322;32;317219;-84
2023/03/13 10:28:18;;;;;;;3.43;2.77;;;;;;;;;;4372424;32;340547;-84
2023/03/13 10:30:50;;;;;;;3.47;2.60;;;;;;;;;;4381729;32;316695;-84
2023/03/13 10:33:24;;;;;;;7.13;3.10;;;;;;;;;;4346084;32;317351;-84
2023/03/13 10:36:05;;;;;;;6.90;2.90;;;;;;;;;;4383045;32;317497;-84
2023/03/13 10:38:34;;;;;;;3.43;2.60;;;;;;;;;;4370861;32;417146;-84
2023/03/13 10:41:05;;;;;;;4.27;2.87;;;;;;;;;;4383453;32;317138;-84
2023/03/13 10:43:32;;;;;;;7.73;3.30;;;;;;;;;;4371088;32;416918;-83
2023/03/13 10:46:02;;;;;;;6.23;4.00;;;;;;;;;;4382627;32;316323;-82
2023/03/13 10:48:35;;;;;;;4.33;2.80;;;;;;;;;;4370588;32;418022;-85
2023/03/13 10:51:04;;;;;;;5.33;3.63;;;;;;;;;;4382965;32;317191;-82
2023/03/13 10:53:34;;;;;;;6.00;2.63;;;;;;;;;;4370735;32;418170;-82
2023/03/13 10:56:09;;;;;;;3.87;2.60;;;;;;;;;;4382850;32;317146;-84
2023/03/13 10:58:41;;;;;;;5.00;3.33;;;;;;;;;;4370437;32;416167;-83
2023/03/13 11:01:19;;;;;;;5.20;3.50;;;;;;;;;;4372359;32;317757;-85
2023/03/13 11:03:47;;;;;;;3.07;2.53;;;;;;;;;;4378751;32;317193;-85
2023/03/13 11:06:26;;;;;;;3.27;2.23;;;;;;;;;;4370884;32;317722;-82
2023/03/13 11:09:00;;;;;;;5.27;3.03;;;;;;;;;;4381337;32;316549;-84
2023/03/13 11:11:29;;;;;;;5.70;2.50;;;;;;;;;;4381833;32;316843;-85
2023/03/13 11:14:08;;;;;;;4.83;2.97;;;;;;;;;;4390977;32;317093;-84
2023/03/13 11:16:46;;;;;;;5.13;2.83;;;;;;;;;;4376754;32;416596;-85
2023/03/13 11:19:47;;;;;;;5.40;3.13;;;;;;;;;;4379895;32;317821;-84
2023/03/13 11:22:24;;;;;;;11.10;2.80;;;;;;;;;;4378102;32;357761;-83
2023/03/13 11:24:58;;;;;;;2.70;2.10;;;;;;;;;;4388381;32;317556;-82
2023/03/13 11:27:31;;;;;;;5.47;3.47;;;;;;;;;;4381161;32;316545;-84
2023/03/13 11:30:19;;;;;;;2.40;2.07;;;;;;;;;;4390349;32;317221;-81
2023/03/13 11:32:53;;;;;;;2.40;1.83;;;;;;;;;;4374505;32;417108;-81
2023/03/13 11:35:32;;;;;;;6.10;3.33;;;;;;;;;;4378493;32;317474;-84
2023/03/13 11:38:02;;;;;;;3.73;2.80;;;;;;;;;;4388037;32;327830;-84
2023/03/13 11:40:35;;;;;;;5.07;3.10;;;;;;;;;;4376288;32;418095;-81
2023/03/13 11:43:14;;;;;;;7.37;3.80;;;;;;;;;;4388521;32;317165;-82
2023/03/13 11:46:06;;;;;;;25.07;7.20;;;;;;;;;;4363934;32;417807;-81
2023/03/13 11:48:51;;;;;;;8.03;5.13;;;;;;;;;;4374530;32;418773;-85
2023/03/13 11:51:24;;;;;;;8.93;3.67;;;;;;;;;;4378566;32;316435;-88
2023/03/13 11:54:11;;;;;;;4.40;2.70;;;;;;;;;;4383614;32;316471;-85
2023/03/13 11:56:43;;;;;;;10.53;5.17;;;;;;;;;;4368303;32;417398;-86
2023/03/13 11:59:32;;;;;;;3.67;2.33;;;;;;;;;;4371349;32;318202;-79
2023/03/13 12:02:04;;;;;;;3.47;2.40;;;;;;;;;;4393520;32;317192;-81
2023/03/13 12:04:37;;;;;;;9.07;6.20;;;;;;;;;;4382362;32;420295;-81
2023/03/13 12:07:17;;;;;;;8.53;4.10;;;;;;;;;;4377609;32;317074;-82
2023/03/13 12:09:47;;;;;;;26.77;17.50;;;;;;;;;;4387980;32;316530;-80
2023/03/13 12:12:21;;;;;;;10.63;6.13;;;;;;;;;;4371205;32;319159;-81
2023/03/13 12:14:53;;;;;;;6.73;4.63;;;;;;;;;;4381025;32;318476;-80
2023/03/13 12:17:29;;;;;;;4.17;2.80;;;;;;;;;;4369093;32;354241;-81
2023/03/13 12:20:05;;;;;;;4.87;2.97;;;;;;;;;;4379480;32;317329;-80
2023/03/13 12:22:37;;;;;;;3.97;2.60;;;;;;;;;;4369013;32;419051;-83
2023/03/13 12:25:10;;;;;;;5.37;3.00;;;;;;;;;;4371945;32;316534;-80
2023/03/13 12:27:41;;;;;;;5.23;4.07;;;;;;;;;;4385245;32;317228;-84
2023/03/13 12:30:20;;;;;;;5.87;3.73;;;;;;;;;;4374843;32;331574;-83
2023/03/13 12:32:56;;;;;;;6.83;3.83;;;;;;;;;;4384083;32;317432;-82
2023/03/13 12:35:28;;;;;;;37.37;24.57;;;;;;;;;;4374827;32;316725;-80
2023/03/13 12:38:01;;;;;;;10.17;6.67;;;;;;;;;;4385147;32;319637;-80
2023/03/13 12:40:33;;;;;;;6.83;2.90;;;;;;;;;;4360569;32;419261;-84
2023/03/13 12:43:05;;;;;;;6.25;3.28;;;;;;;;;;4369075;32;317217;-80
2023/03/13 12:45:33;;;;;;;3.90;2.53;;;;;;;;;;4358507;32;417985;-81
2023/03/13 12:48:23;;;;;;;9.67;3.50;;;;;;;;;;4371805;32;317138;-82
2023/03/13 12:51:17;;;;;;;4.60;2.80;;;;;;;;;;4357409;32;419051;-80
2023/03/13 12:54:08;;;;;;;3.67;2.30;;;;;;;;;;4360470;32;417298;-81
2023/03/13 12:56:58;;;;;;;4.37;2.83;;;;;;;;;;4380382;32;417501;-80
2023/03/13 12:59:30;;;;;;;6.17;2.40;;;;;;;;;;4383707;32;317206;-82
2023/03/13 13:01:57;;;;;;;6.60;3.63;;;;;;;;;;4399526;32;317844;-83
2023/03/13 13:04:27;;;;;;;8.87;3.43;;;;;;;;;;4388060;32;317459;-81
2023/03/13 13:06:59;;;;;;;3.60;2.63;;;;;;;;;;4396707;32;316673;-84
2023/03/13 13:09:28;;;;;;;4.93;3.77;;;;;;;;;;4374626;32;349951;-82
2023/03/13 13:11:57;;;;;;;11.00;6.63;;;;;;;;;;4398530;32;317572;-81
2023/03/13 13:15:02;;;;;;;10.73;3.53;;;;;;;;;;4382826;32;318148;-84
2023/03/13 13:17:40;;;;;;;5.77;2.97;;;;;;;;;;4386321;32;418988;-85
2023/03/13 13:20:37;;;;;;;5.33;3.10;;;;;;;;;;4388238;32;316804;-82
2023/03/13 13:23:33;;;;;;;5.27;2.73;;;;;;;;;;4388695;32;316585;-81
2023/03/13 13:26:46;;;;;;;10.70;7.27;;;;;;;;;;4379406;32;316754;-80
2023/03/13 13:29:56;;;;;;;4.63;2.70;;;;;;;;;;4371484;32;418857;-80
2023/03/13 13:32:32;;;;;;;5.33;2.87;;;;;;;;;;4380698;32;316542;-82
2023/03/13 13:35:05;;;;;;;3.63;2.97;;;;;;;;;;4387741;32;316617;-81
2023/03/13 13:37:32;;;;;;;7.07;2.80;;;;;;;;;;4369955;32;417521;-82
2023/03/13 13:40:28;;;;;;;5.27;3.10;;;;;;;;;;4382795;32;316490;-83
2023/03/13 13:42:56;;;;;;;3.63;2.87;;;;;;;;;;4380452;32;418784;-86
2023/03/13 13:45:29;;;;;;;5.33;2.53;;;;;;;;;;4393842;32;317309;-81
2023/03/13 13:48:16;;;;;;;7.03;3.27;;;;;;;;;;4399778;32;316547;-86
2023/03/13 13:51:17;;;;;;;7.57;5.50;;;;;;;;;;4371457;32;417987;-80
2023/03/13 13:53:46;;;;;;;15.47;6.87;;;;;;;;;;4362826;32;417814;-82
2023/03/13 13:59:28;;;;;;;5.50;2.58;;;;;;;;;;4450357;31;20256;-82
2023/03/13 14:02:33;;;;;;;3.70;2.30;;;;;;;;;;4424934;32;315906;-81
2023/03/13 14:05:04;;;;;;;4.10;2.60;;;;;;;;;;4420902;32;417252;-81
2023/03/13 14:07:55;;;;;;;4.17;3.33;;;;;;;;;;4413360;32;418684;-80
2023/03/13 14:10:40;;;;;;;4.90;3.20;;;;;;;;;;4416021;32;316956;-81
2023/03/13 14:13:13;;;;;;;4.33;3.43;;;;;;;;;;4411059;32;317279;-82
2023/03/13 14:15:44;;;;;;;5.40;2.90;;;;;;;;;;4409777;32;316362;-82
2023/03/13 14:18:20;;;;;;;4.47;3.10;;;;;;;;;;4398937;32;349696;-82
2023/03/13 14:20:59;;;;;;;9.02;6.18;;;;;;;;;;4409636;32;316573;-82
2023/03/13 14:23:33;;;;;;;6.28;3.42;;;;;;;;;;4400718;32;316432;-81
2023/03/13 14:26:09;;;;;;;6.05;3.03;;;;;;;;;;4401207;32;348263;-82
2023/03/13 14:28:39;;;;;;;2.83;2.53;;;;;;;;;;4411214;32;419122;-82
2023/03/13 14:31:08;;;;;;;6.28;3.17;;;;;;;;;;4416038;32;317241;-83
2023/03/13 14:33:35;;;;;;;6.65;3.03;;;;;;;;;;4425227;32;317227;-79
2023/03/13 14:36:02;;;;;;;10.57;3.10;;;;;;;;;;4424733;32;317161;-84
2023/03/13 14:38:29;;;;;;;5.07;3.20;;;;;;;;;;4411424;32;417372;-79
2023/03/13 14:40:56;;;;;;;4.60;3.15;;;;;;;;;;4424763;32;317112;-83